Terminal Aerodrome Forecast
Issued by NWS

Home | Current Version | Previous Version | Text Only | Print | Product List | Glossary On
Versions: 1 2 3 4 5 6 7 8 9 10 11 12 13 14 15 16 17 18 19 20 21 22 23 24 25 26 27 28
000
FTAK31 PAFA 020539
TAFAUN
TAF
PAUN 020539Z 0206/0306 35011KT P6SM VCSH SCT025 BKN070
     FM020900 29009KT P6SM VCSH SCT008 BKN030 BKN060
     FM021500 28012KT P6SM FEW008 BKN035 BKN060
     FM030000 27015KT P6SM -SHRA SCT015 OVC030=

USA.gov is the U.S. government's official web portal to all federal, state and local government web resources and services.